Woodbury, New York
Current Conditions -  °F | °C
As of 1:56 AM on Thursday 27 Nov 2014 (Local Time) from KISP Reporting Station
Light Rain Light Rain  
Wind Chill: 27°   Ceiling: 3000
Heat Index: 36°   Visibility: 8mi
Dew Point: 33°   Wind: 15mph
Humidity: 89%   Direction: 320°NW
Pressure: 29.82"   Gusts: NA
Location:  40.82°N, 73.46°W
Report Text: KISP 270656Z AUTO 32013KT 8SM -RA FEW015 OVC030 02/01 A2982 RMK AO2 UPB10E16 SLP099 P0002 T00220006
Loading
Personal Weather Stations






























Interactive Weather Map New forecast layout! Learn more

10-Day Weather Forecast

Advertisements
Track Severe Weather on mobile